Time;durP1;ratioP1;P1;durP2;ratioP2;P2;SDS_P1;SDS_P2;PMS_P1;PMS_P2;Temp;Humidity;BMP_temperature;BMP_pressure;BME280_temperature;BME280_humidity;BME280_pressure;Samples;Min_cycle;Max_cycle;Signal;HPM_P1;HPM_P2
2023/12/27 00:00:04;;;;;;;151.50;83.40;;;;;;;;;;5193818;27;319574;-79
2023/12/27 00:02:31;;;;;;;134.50;76.20;;;;;;;;;;5209103;27;319251;-79
2023/12/27 00:04:58;;;;;;;144.67;78.47;;;;;;;;;;5204990;27;319110;-79
2023/12/27 00:07:26;;;;;;;141.73;77.50;;;;;;;;;;5195860;27;319219;-80
2023/12/27 00:09:53;;;;;;;150.83;82.47;;;;;;;;;;5210505;27;318751;-80
2023/12/27 00:12:20;;;;;;;139.23;79.07;;;;;;;;;;5201340;27;319208;-80
2023/12/27 00:14:47;;;;;;;131.97;72.13;;;;;;;;;;5209345;27;319120;-80
2023/12/27 00:17:13;;;;;;;124.83;70.27;;;;;;;;;;5193843;27;319046;-80
2023/12/27 00:19:40;;;;;;;108.63;59.53;;;;;;;;;;5205585;27;318461;-79
2023/12/27 00:22:07;;;;;;;91.07;53.63;;;;;;;;;;5198761;27;319100;-80
2023/12/27 00:24:35;;;;;;;103.13;57.23;;;;;;;;;;5211870;27;318129;-80
2023/12/27 00:27:02;;;;;;;93.07;55.47;;;;;;;;;;5197737;27;320229;-79
2023/12/27 00:29:28;;;;;;;111.40;60.50;;;;;;;;;;5199316;27;318254;-80
2023/12/27 00:31:55;;;;;;;104.40;59.17;;;;;;;;;;5205640;27;340783;-80
2023/12/27 00:34:22;;;;;;;102.43;55.17;;;;;;;;;;5200020;27;319246;-79
2023/12/27 00:36:48;;;;;;;98.83;57.20;;;;;;;;;;5210647;27;319175;-79
2023/12/27 00:39:16;;;;;;;101.70;57.30;;;;;;;;;;5189363;27;318060;-80
2023/12/27 00:41:52;;;;;;;98.03;57.87;;;;;;;;;;5191435;27;318601;-80
2023/12/27 00:44:21;;;;;;;100.50;57.33;;;;;;;;;;5187718;27;316318;-80
2023/12/27 00:46:48;;;;;;;94.83;58.83;;;;;;;;;;5210265;27;319380;-79
2023/12/27 00:49:16;;;;;;;103.80;59.07;;;;;;;;;;5188995;27;321351;-79
2023/12/27 00:51:43;;;;;;;101.13;59.70;;;;;;;;;;5209853;27;319236;-80
2023/12/27 00:54:11;;;;;;;100.17;62.40;;;;;;;;;;5197918;27;319472;-80
2023/12/27 00:56:37;;;;;;;114.50;65.33;;;;;;;;;;5210643;27;319389;-79
2023/12/27 00:59:06;;;;;;;124.17;67.43;;;;;;;;;;5197978;27;319276;-81
2023/12/27 01:01:33;;;;;;;122.13;67.37;;;;;;;;;;5206206;27;352794;-80
2023/12/27 01:04:00;;;;;;;120.03;66.87;;;;;;;;;;5196528;27;319293;-80
2023/12/27 01:06:31;;;;;;;113.10;67.70;;;;;;;;;;5184640;27;317764;-80
2023/12/27 01:09:05;;;;;;;137.80;76.50;;;;;;;;;;5207988;27;318475;-79
2023/12/27 01:11:31;;;;;;;143.63;76.77;;;;;;;;;;5187802;27;418274;-79
2023/12/27 01:14:02;;;;;;;132.03;74.73;;;;;;;;;;5210268;27;337843;-80
2023/12/27 01:16:45;;;;;;;137.40;77.20;;;;;;;;;;5193846;27;418234;-79
2023/12/27 01:19:14;;;;;;;132.97;75.00;;;;;;;;;;5198941;27;318701;-80
2023/12/27 01:21:41;;;;;;;134.63;71.43;;;;;;;;;;5195665;27;316461;-79
2023/12/27 01:24:07;;;;;;;129.43;67.50;;;;;;;;;;5213873;27;318070;-80
2023/12/27 01:26:34;;;;;;;126.00;65.90;;;;;;;;;;5225596;27;320412;-79
2023/12/27 01:29:15;;;;;;;106.83;61.33;;;;;;;;;;5208751;27;318135;-80
2023/12/27 01:31:51;;;;;;;98.93;52.97;;;;;;;;;;5182553;27;318936;-79
2023/12/27 01:34:18;;;;;;;92.07;53.93;;;;;;;;;;5194209;27;317506;-79
2023/12/27 01:36:49;;;;;;;135.83;66.87;;;;;;;;;;5192461;27;318143;-79
2023/12/27 01:39:20;;;;;;;103.50;59.13;;;;;;;;;;5179036;27;317543;-80
2023/12/27 01:41:50;;;;;;;126.97;71.50;;;;;;;;;;5207991;27;317376;-79
2023/12/27 01:44:21;;;;;;;109.43;62.77;;;;;;;;;;5174308;27;318699;-79
2023/12/27 01:46:50;;;;;;;102.37;56.60;;;;;;;;;;5202339;27;319168;-79
2023/12/27 01:49:16;;;;;;;93.20;53.67;;;;;;;;;;5186214;27;320030;-80
2023/12/27 01:51:43;;;;;;;94.50;53.53;;;;;;;;;;5204654;27;344363;-79
2023/12/27 01:54:11;;;;;;;98.63;54.10;;;;;;;;;;5196898;27;318295;-79
2023/12/27 01:56:38;;;;;;;91.27;51.50;;;;;;;;;;5207543;27;318115;-80
2023/12/27 01:59:05;;;;;;;84.53;49.87;;;;;;;;;;5197847;27;318314;-80
2023/12/27 02:01:32;;;;;;;101.50;52.33;;;;;;;;;;5199980;27;318396;-79
2023/12/27 02:04:00;;;;;;;82.23;46.57;;;;;;;;;;5198992;27;319243;-79
2023/12/27 02:06:29;;;;;;;90.00;48.63;;;;;;;;;;5210404;27;317572;-80
2023/12/27 02:08:56;;;;;;;102.60;56.77;;;;;;;;;;5210567;27;318645;-79
2023/12/27 02:11:23;;;;;;;110.80;63.13;;;;;;;;;;5188925;27;339664;-80
2023/12/27 02:13:54;;;;;;;108.93;59.37;;;;;;;;;;5208736;27;319145;-80
2023/12/27 02:16:21;;;;;;;118.20;64.10;;;;;;;;;;5163936;27;319209;-79
2023/12/27 02:18:55;;;;;;;115.50;62.60;;;;;;;;;;5204348;27;318506;-79
2023/12/27 02:21:25;;;;;;;110.10;60.70;;;;;;;;;;5188911;27;319400;-79
2023/12/27 02:23:55;;;;;;;99.57;60.73;;;;;;;;;;5209740;27;319202;-79
2023/12/27 02:26:23;;;;;;;104.53;60.23;;;;;;;;;;5198975;27;318226;-80
2023/12/27 02:28:50;;;;;;;113.23;63.07;;;;;;;;;;5210743;27;319131;-80
2023/12/27 02:31:17;;;;;;;135.97;67.60;;;;;;;;;;5190747;27;319439;-80
2023/12/27 02:33:44;;;;;;;104.77;60.80;;;;;;;;;;5209656;27;318473;-80
2023/12/27 02:36:11;;;;;;;124.60;66.10;;;;;;;;;;5199023;27;319468;-80
2023/12/27 02:38:38;;;;;;;105.90;59.77;;;;;;;;;;5210397;27;318642;-80
2023/12/27 02:41:05;;;;;;;107.57;61.03;;;;;;;;;;5194975;27;319075;-79
2023/12/27 02:43:32;;;;;;;101.33;61.07;;;;;;;;;;5202525;27;319470;-80
2023/12/27 02:45:59;;;;;;;119.30;69.13;;;;;;;;;;5198615;27;319242;-80
2023/12/27 02:48:26;;;;;;;124.80;68.63;;;;;;;;;;5211240;27;319343;-80
2023/12/27 02:50:53;;;;;;;145.60;81.53;;;;;;;;;;5209553;27;319310;-79
2023/12/27 02:53:19;;;;;;;160.73;88.20;;;;;;;;;;5189447;27;318502;-79
2023/12/27 02:55:49;;;;;;;158.33;89.93;;;;;;;;;;5210956;27;318676;-79
2023/12/27 02:58:16;;;;;;;160.40;89.90;;;;;;;;;;5169048;27;319001;-79
2023/12/27 03:00:46;;;;;;;162.83;90.40;;;;;;;;;;5206282;27;319197;-79
2023/12/27 03:03:12;;;;;;;158.80;87.80;;;;;;;;;;5187477;27;319188;-79
2023/12/27 03:05:40;;;;;;;162.20;88.77;;;;;;;;;;5207038;27;358408;-79
2023/12/27 03:08:06;;;;;;;154.37;90.90;;;;;;;;;;5196667;27;319109;-80
2023/12/27 03:10:33;;;;;;;172.77;91.97;;;;;;;;;;5208022;27;319216;-80
2023/12/27 03:13:00;;;;;;;152.80;87.60;;;;;;;;;;5197253;27;320352;-80
2023/12/27 03:15:27;;;;;;;159.27;87.10;;;;;;;;;;5201590;27;319160;-80
2023/12/27 03:18:04;;;;;;;161.57;88.83;;;;;;;;;;5209867;27;319172;-80
2023/12/27 03:20:31;;;;;;;166.33;90.03;;;;;;;;;;5164669;27;418791;-80
2023/12/27 03:22:58;;;;;;;172.47;97.33;;;;;;;;;;5206751;27;318678;-80
2023/12/27 03:25:24;;;;;;;184.70;103.47;;;;;;;;;;5183106;27;418389;-80
2023/12/27 03:27:51;;;;;;;182.57;103.33;;;;;;;;;;5205895;27;319498;-80
2023/12/27 03:30:20;;;;;;;191.87;104.73;;;;;;;;;;5195364;27;320342;-80
2023/12/27 03:32:47;;;;;;;188.93;105.63;;;;;;;;;;5208145;27;319627;-80
2023/12/27 03:35:15;;;;;;;186.13;104.90;;;;;;;;;;5191746;27;319837;-80
2023/12/27 03:37:44;;;;;;;196.03;101.57;;;;;;;;;;5205052;27;320105;-80
2023/12/27 03:40:12;;;;;;;191.87;105.33;;;;;;;;;;5194184;27;354367;-80
2023/12/27 03:42:39;;;;;;;199.43;106.93;;;;;;;;;;5206627;27;320328;-80
2023/12/27 03:45:09;;;;;;;185.47;101.37;;;;;;;;;;5194894;27;320330;-80
2023/12/27 03:47:36;;;;;;;188.13;104.30;;;;;;;;;;5201999;27;320407;-80
2023/12/27 03:50:09;;;;;;;194.17;105.50;;;;;;;;;;5195899;27;339825;-80
2023/12/27 03:52:48;;;;;;;174.30;98.30;;;;;;;;;;5208032;27;320519;-80
2023/12/27 03:55:15;;;;;;;163.90;94.30;;;;;;;;;;5193666;27;318725;-82
2023/12/27 03:57:43;;;;;;;157.27;90.03;;;;;;;;;;5228902;27;317733;-80
2023/12/27 04:00:14;;;;;;;165.83;97.97;;;;;;;;;;5212990;27;318710;-79
2023/12/27 04:02:42;;;;;;;156.83;87.30;;;;;;;;;;5226631;27;318870;-79
2023/12/27 04:05:10;;;;;;;131.43;77.67;;;;;;;;;;5172833;27;318241;-79
2023/12/27 04:07:41;;;;;;;133.20;78.53;;;;;;;;;;5200270;27;317925;-79
2023/12/27 04:10:11;;;;;;;161.63;88.30;;;;;;;;;;5199198;27;318605;-81
2023/12/27 04:12:42;;;;;;;151.23;82.77;;;;;;;;;;5195133;27;318495;-79
2023/12/27 04:15:12;;;;;;;161.17;87.47;;;;;;;;;;5173321;27;323181;-80
2023/12/27 04:17:48;;;;;;;169.07;92.63;;;;;;;;;;5200044;27;319123;-79
2023/12/27 04:20:15;;;;;;;170.20;94.07;;;;;;;;;;5195474;27;319063;-80
2023/12/27 04:22:43;;;;;;;172.87;93.63;;;;;;;;;;5206200;27;319248;-80
2023/12/27 04:25:10;;;;;;;166.10;91.00;;;;;;;;;;5190131;27;319212;-80
2023/12/27 04:27:38;;;;;;;162.87;89.83;;;;;;;;;;5207189;27;318724;-80
2023/12/27 04:30:11;;;;;;;150.33;84.13;;;;;;;;;;5194253;27;319117;-80
2023/12/27 04:32:41;;;;;;;157.60;85.50;;;;;;;;;;5207452;27;318836;-80
2023/12/27 04:35:16;;;;;;;146.73;84.27;;;;;;;;;;5193835;27;318661;-80
2023/12/27 04:37:44;;;;;;;149.33;83.30;;;;;;;;;;5206465;27;318613;-80
2023/12/27 04:40:12;;;;;;;141.70;83.70;;;;;;;;;;5197039;27;319624;-79
2023/12/27 04:42:38;;;;;;;151.13;84.50;;;;;;;;;;5207292;27;318500;-80
2023/12/27 04:45:07;;;;;;;151.03;86.40;;;;;;;;;;5196393;27;319269;-80
2023/12/27 04:47:33;;;;;;;148.80;85.97;;;;;;;;;;5199403;27;319221;-80
2023/12/27 04:50:00;;;;;;;146.03;84.00;;;;;;;;;;5197019;27;372441;-80
2023/12/27 04:52:27;;;;;;;128.00;76.07;;;;;;;;;;5207291;27;320199;-79
2023/12/27 04:54:55;;;;;;;132.80;76.60;;;;;;;;;;5203662;27;318338;-79
2023/12/27 04:57:22;;;;;;;134.50;77.60;;;;;;;;;;5187938;27;319095;-80
2023/12/27 04:59:48;;;;;;;127.20;70.73;;;;;;;;;;5203080;27;318550;-81
2023/12/27 05:02:15;;;;;;;111.40;67.90;;;;;;;;;;5196201;27;319029;-80
2023/12/27 05:04:42;;;;;;;110.53;64.73;;;;;;;;;;5206050;27;319032;-80
2023/12/27 05:07:10;;;;;;;119.73;69.00;;;;;;;;;;5188948;27;319620;-80
2023/12/27 05:09:37;;;;;;;119.70;66.57;;;;;;;;;;5207811;27;319196;-80
2023/12/27 05:12:06;;;;;;;124.17;70.20;;;;;;;;;;5194057;27;319384;-80
2023/12/27 05:14:34;;;;;;;133.87;74.10;;;;;;;;;;5207672;27;319206;-79
2023/12/27 05:17:01;;;;;;;125.67;71.23;;;;;;;;;;5194148;27;318694;-79
2023/12/27 05:22:11;;;;;;;179.00;88.47;;;;;;;;;;5195418;27;318714;-79
2023/12/27 05:24:37;;;;;;;208.17;109.53;;;;;;;;;;5204016;27;319309;-81
2023/12/27 05:27:06;;;;;;;150.20;84.23;;;;;;;;;;5194813;27;320297;-80
2023/12/27 05:29:34;;;;;;;117.17;67.07;;;;;;;;;;5198085;27;320250;-80
2023/12/27 05:32:00;;;;;;;126.40;71.57;;;;;;;;;;5206216;27;319379;-81
2023/12/27 05:34:27;;;;;;;122.93;68.00;;;;;;;;;;5196847;27;319237;-80
2023/12/27 05:36:54;;;;;;;127.07;73.00;;;;;;;;;;5209697;27;319038;-79
2023/12/27 05:39:25;;;;;;;126.23;70.37;;;;;;;;;;5186822;27;318508;-79
2023/12/27 05:41:52;;;;;;;125.10;72.10;;;;;;;;;;5209292;27;318644;-79
2023/12/27 05:44:20;;;;;;;127.57;71.70;;;;;;;;;;5194788;27;319909;-79
2023/12/27 05:46:47;;;;;;;197.83;93.73;;;;;;;;;;5207301;27;318678;-79
2023/12/27 05:49:14;;;;;;;184.57;98.20;;;;;;;;;;5194391;27;319317;-79
2023/12/27 05:51:40;;;;;;;190.63;102.97;;;;;;;;;;5199535;27;345718;-79
2023/12/27 05:54:09;;;;;;;206.13;108.40;;;;;;;;;;5195668;27;320466;-81
2023/12/27 05:56:36;;;;;;;222.93;111.60;;;;;;;;;;5207538;27;320623;-81
2023/12/27 05:59:03;;;;;;;218.00;111.70;;;;;;;;;;5177538;27;320268;-79
2023/12/27 06:01:31;;;;;;;226.17;115.43;;;;;;;;;;5186093;27;419207;-79
2023/12/27 06:03:57;;;;;;;204.50;108.57;;;;;;;;;;5207467;27;320241;-80
2023/12/27 06:06:24;;;;;;;175.93;102.53;;;;;;;;;;5195164;27;320258;-80
2023/12/27 06:08:56;;;;;;;153.87;88.17;;;;;;;;;;5181234;27;320039;-79
2023/12/27 06:11:22;;;;;;;179.50;98.37;;;;;;;;;;5155470;27;320788;-78
2023/12/27 06:13:49;;;;;;;207.20;114.27;;;;;;;;;;5209492;27;318794;-79
2023/12/27 06:16:16;;;;;;;192.27;105.27;;;;;;;;;;5198896;27;320113;-78
2023/12/27 06:18:44;;;;;;;177.70;99.77;;;;;;;;;;5209755;27;320425;-79
2023/12/27 06:21:11;;;;;;;162.40;96.30;;;;;;;;;;5197104;27;319993;-79
2023/12/27 06:23:37;;;;;;;167.57;90.90;;;;;;;;;;5200549;27;344926;-80
2023/12/27 06:26:04;;;;;;;144.90;88.93;;;;;;;;;;5199088;27;319191;-79
2023/12/27 06:28:32;;;;;;;158.77;88.77;;;;;;;;;;5211257;27;319427;-80
2023/12/27 06:30:59;;;;;;;142.07;82.77;;;;;;;;;;5208652;27;319772;-80
2023/12/27 06:33:26;;;;;;;134.13;79.50;;;;;;;;;;5188952;27;360169;-79
2023/12/27 06:35:54;;;;;;;145.27;86.47;;;;;;;;;;5208838;27;319223;-79
2023/12/27 06:38:20;;;;;;;121.83;76.13;;;;;;;;;;5201647;27;319265;-79
2023/12/27 06:40:47;;;;;;;143.47;80.53;;;;;;;;;;5211699;27;319168;-79
2023/12/27 06:43:14;;;;;;;133.70;80.20;;;;;;;;;;5198185;27;319063;-79
2023/12/27 06:45:41;;;;;;;145.93;80.07;;;;;;;;;;5200358;27;319278;-80
2023/12/27 06:48:08;;;;;;;154.47;89.27;;;;;;;;;;5198831;27;319157;-80
2023/12/27 06:50:34;;;;;;;177.83;94.27;;;;;;;;;;5210654;27;319352;-79
2023/12/27 06:53:03;;;;;;;184.53;110.97;;;;;;;;;;5210963;27;319258;-79
2023/12/27 06:55:29;;;;;;;180.80;106.27;;;;;;;;;;5184835;27;419960;-79
2023/12/27 06:57:56;;;;;;;174.03;104.90;;;;;;;;;;5212032;27;320333;-79
2023/12/27 07:00:23;;;;;;;181.87;104.73;;;;;;;;;;5198755;27;321064;-79
2023/12/27 07:02:50;;;;;;;203.77;106.43;;;;;;;;;;5209658;27;320243;-80
2023/12/27 07:05:17;;;;;;;184.83;102.77;;;;;;;;;;5194702;27;320425;-79
2023/12/27 07:07:44;;;;;;;201.97;113.07;;;;;;;;;;5208634;27;320270;-80
2023/12/27 07:10:12;;;;;;;212.63;122.73;;;;;;;;;;5199292;27;320492;-80
2023/12/27 07:12:39;;;;;;;220.27;127.77;;;;;;;;;;5209465;27;320257;-80
2023/12/27 07:15:07;;;;;;;232.73;134.97;;;;;;;;;;5197018;27;325355;-81
2023/12/27 07:17:34;;;;;;;236.03;136.63;;;;;;;;;;5202628;27;321079;-79
2023/12/27 07:20:01;;;;;;;245.97;142.83;;;;;;;;;;5207941;27;356143;-79
2023/12/27 07:22:27;;;;;;;260.57;147.47;;;;;;;;;;5198311;27;320197;-79
2023/12/27 07:24:54;;;;;;;273.97;149.73;;;;;;;;;;5211002;27;320492;-80
2023/12/27 07:27:22;;;;;;;253.80;147.27;;;;;;;;;;5190047;27;320343;-79
2023/12/27 07:29:49;;;;;;;256.87;150.07;;;;;;;;;;5209597;27;319595;-79
2023/12/27 07:32:16;;;;;;;265.60;152.63;;;;;;;;;;5197925;27;339978;-79
2023/12/27 07:34:42;;;;;;;247.97;145.10;;;;;;;;;;5212241;27;320806;-79
2023/12/27 07:37:09;;;;;;;221.60;131.60;;;;;;;;;;5199775;27;320886;-79
2023/12/27 07:39:36;;;;;;;207.30;125.30;;;;;;;;;;5204285;27;319844;-79
2023/12/27 07:42:03;;;;;;;228.37;131.47;;;;;;;;;;5210773;27;319988;-80
2023/12/27 07:44:31;;;;;;;221.53;134.07;;;;;;;;;;5195170;27;420874;-78
2023/12/27 07:46:58;;;;;;;228.03;135.23;;;;;;;;;;5210971;27;320400;-78
2023/12/27 07:49:25;;;;;;;225.20;129.57;;;;;;;;;;5192887;27;320398;-78
2023/12/27 07:51:52;;;;;;;202.03;123.00;;;;;;;;;;5197738;27;329446;-81
2023/12/27 07:54:18;;;;;;;220.43;129.90;;;;;;;;;;5213839;27;319278;-79
2023/12/27 07:56:45;;;;;;;223.80;140.60;;;;;;;;;;5226842;27;320071;-79
2023/12/27 07:59:12;;;;;;;229.87;139.40;;;;;;;;;;5202210;27;320649;-79
2023/12/27 08:01:40;;;;;;;232.27;139.97;;;;;;;;;;5204420;27;320495;-79
2023/12/27 08:04:07;;;;;;;242.27;146.10;;;;;;;;;;5200973;27;320286;-79
2023/12/27 08:06:34;;;;;;;277.03;156.47;;;;;;;;;;5211079;27;320308;-79
2023/12/27 08:09:01;;;;;;;243.20;147.03;;;;;;;;;;5211172;27;320945;-80
2023/12/27 08:11:27;;;;;;;233.40;142.20;;;;;;;;;;5193472;27;320124;-79
2023/12/27 08:13:54;;;;;;;231.00;142.77;;;;;;;;;;5212561;27;320181;-80
2023/12/27 08:16:21;;;;;;;249.60;145.20;;;;;;;;;;5199391;27;320321;-79
2023/12/27 08:18:49;;;;;;;234.43;141.40;;;;;;;;;;5209339;27;352378;-79
2023/12/27 08:21:16;;;;;;;273.13;154.77;;;;;;;;;;5196843;27;320413;-79
2023/12/27 08:23:42;;;;;;;216.30;129.77;;;;;;;;;;5207297;27;320154;-80
2023/12/27 08:26:10;;;;;;;191.27;118.33;;;;;;;;;;5198043;27;320458;-80
2023/12/27 08:28:37;;;;;;;166.07;102.17;;;;;;;;;;5211513;27;320227;-80
2023/12/27 08:31:05;;;;;;;149.03;96.90;;;;;;;;;;5199429;27;320422;-79
2023/12/27 08:33:32;;;;;;;174.80;102.80;;;;;;;;;;5204112;27;319292;-79
2023/12/27 08:36:00;;;;;;;176.23;104.27;;;;;;;;;;5211423;27;320084;-80
2023/12/27 08:38:27;;;;;;;160.60;96.07;;;;;;;;;;5199344;27;320221;-80
2023/12/27 08:40:53;;;;;;;128.77;80.20;;;;;;;;;;5212736;27;319366;-79
2023/12/27 08:43:21;;;;;;;131.23;83.23;;;;;;;;;;5192975;27;318912;-80
2023/12/27 08:45:48;;;;;;;129.50;81.07;;;;;;;;;;5208600;27;332991;-79
2023/12/27 08:48:13;;;;;;;144.40;89.90;;;;;;;;;;5199904;27;319322;-80
2023/12/27 08:50:41;;;;;;;152.30;91.73;;;;;;;;;;5210544;27;319063;-79
2023/12/27 08:53:11;;;;;;;151.17;93.47;;;;;;;;;;5197965;27;319098;-80
2023/12/27 08:55:38;;;;;;;139.47;86.53;;;;;;;;;;5196279;27;319836;-80
2023/12/27 08:58:05;;;;;;;135.33;84.47;;;;;;;;;;5196504;27;319258;-81
2023/12/27 09:00:32;;;;;;;115.53;76.60;;;;;;;;;;5209026;27;319376;-81
2023/12/27 09:02:58;;;;;;;107.93;65.50;;;;;;;;;;5211009;27;318581;-80
2023/12/27 09:05:26;;;;;;;105.17;66.97;;;;;;;;;;5192933;27;319215;-80
2023/12/27 09:07:53;;;;;;;99.40;65.00;;;;;;;;;;5208259;27;319310;-80
2023/12/27 09:10:21;;;;;;;104.70;62.47;;;;;;;;;;5195927;27;318050;-80
2023/12/27 09:12:47;;;;;;;96.93;62.10;;;;;;;;;;5211712;27;319279;-80
2023/12/27 09:15:14;;;;;;;105.83;68.40;;;;;;;;;;5197631;27;318179;-79
2023/12/27 09:17:41;;;;;;;111.70;68.03;;;;;;;;;;5199768;27;318988;-80
2023/12/27 09:20:09;;;;;;;111.57;68.93;;;;;;;;;;5194244;27;319139;-80
2023/12/27 09:22:36;;;;;;;113.17;69.60;;;;;;;;;;5209226;27;319341;-80
2023/12/27 09:25:03;;;;;;;107.63;70.40;;;;;;;;;;5212120;27;319226;-80
2023/12/27 09:27:31;;;;;;;127.03;83.00;;;;;;;;;;5182124;27;418914;-81
2023/12/27 09:29:58;;;;;;;131.57;84.20;;;;;;;;;;5210322;27;318346;-80
2023/12/27 09:32:25;;;;;;;129.23;82.60;;;;;;;;;;5198136;27;334385;-79
2023/12/27 09:34:51;;;;;;;145.60;91.10;;;;;;;;;;5211986;27;319306;-80
2023/12/27 09:37:18;;;;;;;150.93;101.93;;;;;;;;;;5197971;27;319473;-80
2023/12/27 09:39:45;;;;;;;169.97;109.63;;;;;;;;;;5199004;27;320258;-80
2023/12/27 09:42:13;;;;;;;175.53;113.47;;;;;;;;;;5197998;27;319761;-80
2023/12/27 09:44:43;;;;;;;188.93;120.90;;;;;;;;;;5207172;27;352476;-80
2023/12/27 09:47:11;;;;;;;196.53;124.03;;;;;;;;;;5197482;27;320389;-80
2023/12/27 09:49:38;;;;;;;208.53;134.80;;;;;;;;;;5198647;27;320186;-80
2023/12/27 09:52:07;;;;;;;245.63;148.57;;;;;;;;;;5196893;27;319782;-80
2023/12/27 09:54:34;;;;;;;241.17;143.53;;;;;;;;;;5209785;27;320279;-80
2023/12/27 09:57:01;;;;;;;200.83;124.87;;;;;;;;;;5206743;27;320236;-80
2023/12/27 09:59:29;;;;;;;198.63;124.33;;;;;;;;;;5191686;27;320214;-80
2023/12/27 10:02:01;;;;;;;175.93;112.90;;;;;;;;;;5210698;27;319611;-80
2023/12/27 10:04:44;;;;;;;209.17;123.77;;;;;;;;;;5196712;27;319697;-80
2023/12/27 10:07:12;;;;;;;185.13;121.40;;;;;;;;;;5199152;27;320156;-80
2023/12/27 10:09:39;;;;;;;188.03;118.10;;;;;;;;;;5199675;27;319498;-80
2023/12/27 10:12:08;;;;;;;172.27;108.00;;;;;;;;;;5206741;27;320186;-80
2023/12/27 10:14:36;;;;;;;156.77;102.17;;;;;;;;;;5222244;27;319001;-80
2023/12/27 10:17:05;;;;;;;154.07;103.40;;;;;;;;;;5227588;27;319662;-80
2023/12/27 10:19:38;;;;;;;156.00;100.03;;;;;;;;;;5203286;27;420770;-80
2023/12/27 10:22:05;;;;;;;164.43;98.33;;;;;;;;;;5214915;27;318162;-80
2023/12/27 10:24:32;;;;;;;147.37;96.90;;;;;;;;;;5224383;27;318928;-79
2023/12/27 10:26:59;;;;;;;147.27;97.77;;;;;;;;;;5227653;27;317152;-81
2023/12/27 10:29:26;;;;;;;153.27;102.10;;;;;;;;;;5208581;27;319147;-79
2023/12/27 10:31:52;;;;;;;157.37;106.73;;;;;;;;;;5221352;27;319488;-79
2023/12/27 10:34:21;;;;;;;152.47;100.17;;;;;;;;;;5214359;27;318959;-80
2023/12/27 10:36:50;;;;;;;162.77;109.23;;;;;;;;;;5227450;27;318181;-79
2023/12/27 10:39:18;;;;;;;175.50;102.37;;;;;;;;;;5212462;27;319059;-80
2023/12/27 10:41:45;;;;;;;153.57;101.77;;;;;;;;;;5224473;27;326046;-80
2023/12/27 10:44:12;;;;;;;158.47;100.87;;;;;;;;;;5205624;27;319224;-80
2023/12/27 10:46:40;;;;;;;169.70;107.97;;;;;;;;;;5214100;27;321266;-80
2023/12/27 10:49:07;;;;;;;188.93;121.67;;;;;;;;;;5197637;27;334438;-78
2023/12/27 10:51:39;;;;;;;165.10;115.23;;;;;;;;;;5210651;27;321041;-82
2023/12/27 10:54:06;;;;;;;184.13;118.27;;;;;;;;;;5215642;27;321318;-78
2023/12/27 10:56:36;;;;;;;184.73;120.13;;;;;;;;;;5228772;27;319277;-79
2023/12/27 10:59:04;;;;;;;180.33;118.87;;;;;;;;;;5227906;27;319829;-79
2023/12/27 11:01:33;;;;;;;176.20;121.70;;;;;;;;;;5206059;27;418899;-79
2023/12/27 11:04:00;;;;;;;173.87;116.60;;;;;;;;;;5227202;27;320224;-79
2023/12/27 11:06:30;;;;;;;163.53;110.00;;;;;;;;;;5214674;27;320314;-81
2023/12/27 11:08:58;;;;;;;165.07;106.90;;;;;;;;;;5227143;27;319987;-80
2023/12/27 11:11:28;;;;;;;153.87;96.30;;;;;;;;;;5209970;27;320117;-82
2023/12/27 11:13:55;;;;;;;165.10;98.67;;;;;;;;;;5230762;27;319735;-79
2023/12/27 11:16:23;;;;;;;144.83;93.07;;;;;;;;;;5217832;27;319093;-79
2023/12/27 11:18:53;;;;;;;145.03;88.07;;;;;;;;;;5228649;27;319066;-80
2023/12/27 11:21:20;;;;;;;103.33;66.93;;;;;;;;;;5218550;27;319376;-80
2023/12/27 11:23:47;;;;;;;107.03;69.50;;;;;;;;;;5230433;27;319292;-80
2023/12/27 11:26:17;;;;;;;63.23;40.03;;;;;;;;;;5218079;27;318789;-79
2023/12/27 11:28:46;;;;;;;28.43;19.67;;;;;;;;;;5231580;27;317158;-82
2023/12/27 11:31:13;;;;;;;37.53;23.47;;;;;;;;;;5208953;27;318882;-80
2023/12/27 11:33:43;;;;;;;46.07;25.40;;;;;;;;;;5208552;27;319127;-80
2023/12/27 11:36:11;;;;;;;38.13;24.63;;;;;;;;;;5201690;27;319130;-80
2023/12/27 11:38:39;;;;;;;32.37;24.23;;;;;;;;;;5213724;27;318838;-80
2023/12/27 11:41:07;;;;;;;38.13;23.93;;;;;;;;;;5199069;27;319377;-80
